Time;durP1;ratioP1;P1;durP2;ratioP2;P2;SDS_P1;SDS_P2;PMS_P1;PMS_P2;Temp;Humidity;BMP_temperature;BMP_pressure;BME280_temperature;BME280_humidity;BME280_pressure;Samples;Min_cycle;Max_cycle;Signal;HPM_P1;HPM_P2
2022/03/16 00:00:05;;;;;;;54.35;31.15;;;;;;;;;;5116491;28;20034;-81
2022/03/16 00:02:31;;;;;;;54.45;31.08;;;;;;;;;;5127191;28;20584;-81
2022/03/16 00:04:58;;;;;;;49.90;30.70;;;;;;;;;;5125752;28;20043;-81
2022/03/16 00:07:24;;;;;;;52.33;31.02;;;;;;;;;;5126086;28;20046;-81
2022/03/16 00:09:50;;;;;;;56.80;33.78;;;;;;;;;;5108704;28;20077;-81
2022/03/16 00:12:16;;;;;;;60.47;36.60;;;;;;;;;;5108835;28;20031;-80
2022/03/16 00:14:42;;;;;;;57.72;32.95;;;;;;;;;;5126335;28;20427;-80
2022/03/16 00:17:08;;;;;;;52.42;31.30;;;;;;;;;;5108035;28;20039;-81
2022/03/16 00:19:34;;;;;;;57.55;34.55;;;;;;;;;;5125317;28;20040;-81
2022/03/16 00:22:00;;;;;;;56.95;34.25;;;;;;;;;;5107179;28;20403;-80
2022/03/16 00:24:26;;;;;;;68.85;38.53;;;;;;;;;;5123298;28;20028;-81
2022/03/16 00:26:52;;;;;;;56.45;33.45;;;;;;;;;;5106048;28;20373;-82
2022/03/16 00:29:18;;;;;;;57.53;33.38;;;;;;;;;;5105943;28;20087;-81
2022/03/16 00:31:44;;;;;;;57.92;34.85;;;;;;;;;;5108871;28;20114;-79
2022/03/16 00:34:10;;;;;;;58.08;34.83;;;;;;;;;;5111397;28;20032;-79
2022/03/16 00:36:36;;;;;;;58.13;35.08;;;;;;;;;;5109900;28;20039;-79
2022/03/16 00:39:03;;;;;;;50.83;31.75;;;;;;;;;;5110275;28;20042;-79
2022/03/16 00:41:29;;;;;;;56.42;31.08;;;;;;;;;;5127990;28;20036;-80
2022/03/16 00:43:55;;;;;;;59.40;32.35;;;;;;;;;;5127332;28;20039;-80
2022/03/16 00:46:21;;;;;;;55.38;32.47;;;;;;;;;;5109605;28;20040;-78
2022/03/16 00:48:47;;;;;;;49.88;31.30;;;;;;;;;;5130950;28;20450;-79
2022/03/16 00:51:13;;;;;;;54.08;32.47;;;;;;;;;;5111290;28;20481;-79
2022/03/16 00:53:40;;;;;;;53.85;32.50;;;;;;;;;;5112262;28;20036;-79
2022/03/16 00:56:07;;;;;;;52.85;31.33;;;;;;;;;;5111832;28;20059;-79
2022/03/16 00:58:33;;;;;;;57.78;35.00;;;;;;;;;;5128299;28;20397;-79
2022/03/16 01:00:59;;;;;;;54.60;32.17;;;;;;;;;;5129299;28;20065;-79
2022/03/16 01:03:26;;;;;;;56.03;31.98;;;;;;;;;;5128560;28;20063;-79
2022/03/16 01:05:52;;;;;;;52.10;30.77;;;;;;;;;;5111421;28;20043;-78
2022/03/16 01:08:18;;;;;;;50.30;30.23;;;;;;;;;;5111738;28;20097;-79
2022/03/16 01:10:44;;;;;;;53.85;31.77;;;;;;;;;;5129229;28;20061;-79
2022/03/16 01:13:10;;;;;;;52.85;30.88;;;;;;;;;;5128554;28;20032;-79
2022/03/16 01:15:36;;;;;;;56.92;31.70;;;;;;;;;;5126338;28;20076;-78
2022/03/16 01:18:02;;;;;;;52.35;32.03;;;;;;;;;;5108467;28;20031;-80
2022/03/16 01:20:28;;;;;;;55.03;32.67;;;;;;;;;;5108999;28;20051;-80
2022/03/16 01:22:54;;;;;;;54.60;31.27;;;;;;;;;;5115074;28;20035;-79
2022/03/16 01:25:20;;;;;;;51.83;29.77;;;;;;;;;;5118224;28;20043;-78
2022/03/16 01:27:46;;;;;;;52.58;31.85;;;;;;;;;;5134327;28;20031;-79
2022/03/16 01:30:13;;;;;;;57.78;32.83;;;;;;;;;;5110340;28;20055;-79
2022/03/16 01:32:40;;;;;;;61.40;35.05;;;;;;;;;;5127303;28;20131;-79
2022/03/16 01:35:06;;;;;;;60.22;34.83;;;;;;;;;;5125673;28;20046;-79
2022/03/16 01:37:32;;;;;;;61.95;35.88;;;;;;;;;;5107625;28;20053;-79
2022/03/16 01:39:58;;;;;;;59.28;33.97;;;;;;;;;;5122951;28;20054;-78
2022/03/16 01:42:25;;;;;;;53.22;31.83;;;;;;;;;;5122800;28;20043;-79
2022/03/16 01:44:51;;;;;;;57.75;34.60;;;;;;;;;;5105056;28;20036;-78
2022/03/16 01:47:19;;;;;;;60.42;35.20;;;;;;;;;;5119882;28;20047;-79
2022/03/16 01:49:45;;;;;;;56.15;32.45;;;;;;;;;;5102688;28;20351;-79
2022/03/16 01:52:12;;;;;;;56.17;32.63;;;;;;;;;;5124106;28;20036;-79
2022/03/16 01:54:41;;;;;;;56.17;32.58;;;;;;;;;;5102418;28;20109;-79
2022/03/16 01:57:08;;;;;;;60.38;33.42;;;;;;;;;;5120132;28;20043;-80
2022/03/16 01:59:35;;;;;;;59.65;33.13;;;;;;;;;;5127398;28;20058;-80
2022/03/16 02:02:01;;;;;;;59.38;34.47;;;;;;;;;;5109845;28;20051;-79
2022/03/16 02:04:27;;;;;;;61.40;35.42;;;;;;;;;;5125886;28;20043;-80
2022/03/16 02:06:53;;;;;;;74.78;39.95;;;;;;;;;;5126851;28;20054;-80
2022/03/16 02:09:21;;;;;;;84.90;44.08;;;;;;;;;;5113846;28;20057;-80
2022/03/16 02:11:47;;;;;;;69.55;40.67;;;;;;;;;;5118792;28;20031;-80
2022/03/16 02:14:13;;;;;;;69.30;39.60;;;;;;;;;;5118781;28;20042;-80
2022/03/16 02:16:39;;;;;;;69.95;38.50;;;;;;;;;;5136404;28;20024;-79
2022/03/16 02:19:05;;;;;;;68.05;38.15;;;;;;;;;;5119457;28;20046;-79
2022/03/16 02:21:31;;;;;;;63.30;37.55;;;;;;;;;;5136496;28;20062;-79
2022/03/16 02:23:57;;;;;;;60.35;36.15;;;;;;;;;;5119710;28;20062;-78
2022/03/16 02:26:26;;;;;;;65.97;37.47;;;;;;;;;;5119430;28;20043;-80
2022/03/16 02:28:53;;;;;;;57.00;34.50;;;;;;;;;;5136339;28;20020;-80
2022/03/16 02:31:20;;;;;;;54.92;32.00;;;;;;;;;;5107356;28;20050;-80
2022/03/16 02:33:46;;;;;;;59.05;33.42;;;;;;;;;;5120032;28;20078;-80
2022/03/16 02:36:11;;;;;;;51.55;31.90;;;;;;;;;;5120167;28;20434;-80
2022/03/16 02:38:38;;;;;;;60.15;32.95;;;;;;;;;;5102719;28;20043;-80
2022/03/16 02:41:04;;;;;;;64.80;35.20;;;;;;;;;;5120085;28;20040;-80
2022/03/16 02:43:30;;;;;;;58.75;33.17;;;;;;;;;;5102498;28;20351;-80
2022/03/16 02:45:56;;;;;;;59.40;33.33;;;;;;;;;;5102171;28;20456;-80
2022/03/16 02:48:22;;;;;;;65.10;38.08;;;;;;;;;;5119824;28;20039;-80
2022/03/16 02:50:49;;;;;;;65.13;35.47;;;;;;;;;;5120128;28;20103;-80
2022/03/16 02:53:16;;;;;;;56.35;33.75;;;;;;;;;;5118782;28;20036;-79
2022/03/16 02:55:44;;;;;;;59.38;33.92;;;;;;;;;;5118283;28;20040;-79
2022/03/16 02:58:10;;;;;;;74.65;40.50;;;;;;;;;;5101935;28;20071;-79
2022/03/16 03:00:36;;;;;;;63.90;37.10;;;;;;;;;;5119274;28;20039;-78
2022/03/16 03:03:02;;;;;;;96.90;38.10;;;;;;;;;;5100479;28;20111;-79
2022/03/16 03:05:28;;;;;;;92.35;40.25;;;;;;;;;;5100419;28;20071;-78
2022/03/16 03:07:54;;;;;;;69.15;36.75;;;;;;;;;;5119485;28;20036;-80
2022/03/16 03:10:20;;;;;;;149.93;40.75;;;;;;;;;;5120792;28;20042;-79
2022/03/16 03:12:46;;;;;;;75.80;39.22;;;;;;;;;;5103871;28;20046;-80
2022/03/16 03:15:13;;;;;;;97.90;40.35;;;;;;;;;;5121604;28;20031;-81
2022/03/16 03:17:39;;;;;;;77.57;39.80;;;;;;;;;;5122690;28;20047;-79
2022/03/16 03:20:05;;;;;;;70.03;37.80;;;;;;;;;;5135814;28;20031;-80
2022/03/16 03:22:31;;;;;;;68.20;37.33;;;;;;;;;;5102145;28;20061;-80
2022/03/16 03:24:57;;;;;;;65.78;37.60;;;;;;;;;;5126016;28;20031;-82
2022/03/16 03:27:23;;;;;;;63.78;36.28;;;;;;;;;;5121651;28;20081;-78
2022/03/16 03:29:49;;;;;;;66.90;37.38;;;;;;;;;;5139156;28;20020;-79
2022/03/16 03:32:15;;;;;;;59.53;35.15;;;;;;;;;;5120266;28;20116;-81
2022/03/16 03:34:46;;;;;;;64.60;36.35;;;;;;;;;;5108578;28;20054;-81
2022/03/16 03:37:13;;;;;;;70.82;37.15;;;;;;;;;;5117884;28;20100;-80
2022/03/16 03:39:39;;;;;;;65.70;37.38;;;;;;;;;;5101869;28;20085;-80
2022/03/16 03:42:05;;;;;;;67.63;37.45;;;;;;;;;;5119635;28;20050;-80
2022/03/16 03:44:31;;;;;;;67.55;36.35;;;;;;;;;;5120603;28;20043;-80
2022/03/16 03:46:57;;;;;;;74.05;40.20;;;;;;;;;;5120957;28;20043;-82
2022/03/16 03:49:23;;;;;;;69.65;37.40;;;;;;;;;;5104485;28;20409;-81
2022/03/16 03:51:49;;;;;;;74.63;39.63;;;;;;;;;;5123639;28;20032;-79
2022/03/16 03:54:15;;;;;;;68.38;37.22;;;;;;;;;;5126220;28;20035;-80
2022/03/16 03:56:41;;;;;;;73.18;38.97;;;;;;;;;;5120934;28;20872;-81
2022/03/16 03:59:07;;;;;;;81.20;41.80;;;;;;;;;;5119938;28;20057;-80
2022/03/16 04:01:33;;;;;;;101.32;42.22;;;;;;;;;;5104227;28;20091;-81
2022/03/16 04:03:59;;;;;;;110.57;45.58;;;;;;;;;;5122182;28;20046;-80
2022/03/16 04:06:26;;;;;;;89.45;42.28;;;;;;;;;;5122609;28;20058;-82
2022/03/16 04:08:52;;;;;;;163.95;45.20;;;;;;;;;;5106749;28;20031;-81
2022/03/16 04:11:19;;;;;;;93.18;39.50;;;;;;;;;;5123627;28;20426;-81
2022/03/16 04:13:45;;;;;;;114.00;41.78;;;;;;;;;;5123110;28;20043;-81
2022/03/16 04:16:11;;;;;;;76.63;38.53;;;;;;;;;;5123421;28;20355;-81
2022/03/16 04:18:37;;;;;;;168.35;42.15;;;;;;;;;;5106721;28;20062;-81
2022/03/16 04:21:03;;;;;;;177.70;40.60;;;;;;;;;;5123478;28;20119;-81
2022/03/16 04:23:29;;;;;;;152.10;37.65;;;;;;;;;;5106385;28;20054;-81
2022/03/16 04:25:55;;;;;;;272.92;42.97;;;;;;;;;;5123355;28;20122;-81
2022/03/16 04:28:21;;;;;;;510.52;45.53;;;;;;;;;;5107105;28;20055;-80
2022/03/16 04:30:47;;;;;;;396.35;40.10;;;;;;;;;;5111597;28;20039;-79
2022/03/16 04:33:13;;;;;;;413.35;43.70;;;;;;;;;;5107801;28;20035;-82
2022/03/16 04:35:39;;;;;;;464.20;43.00;;;;;;;;;;5106379;28;20047;-79
2022/03/16 04:38:05;;;;;;;109.57;35.10;;;;;;;;;;5110349;28;20040;-79
2022/03/16 04:40:31;;;;;;;438.73;44.25;;;;;;;;;;5108565;28;20452;-79
2022/03/16 04:42:57;;;;;;;589.50;44.55;;;;;;;;;;5128589;28;20108;-79
2022/03/16 04:45:23;;;;;;;655.63;44.92;;;;;;;;;;5115406;28;20039;-78
2022/03/16 04:47:49;;;;;;;157.10;35.88;;;;;;;;;;5121668;28;20038;-78
2022/03/16 04:50:15;;;;;;;224.70;38.08;;;;;;;;;;5135497;28;20092;-79
2022/03/16 04:52:48;;;;;;;81.30;33.33;;;;;;;;;;5106127;28;20035;-79
2022/03/16 04:55:14;;;;;;;164.48;34.42;;;;;;;;;;5117579;28;20065;-80
2022/03/16 04:57:40;;;;;;;71.70;33.55;;;;;;;;;;5102412;28;20035;-80
2022/03/16 05:00:06;;;;;;;311.08;43.35;;;;;;;;;;5119016;28;20359;-81
2022/03/16 05:02:32;;;;;;;314.95;36.08;;;;;;;;;;5118652;28;20526;-81
2022/03/16 05:04:58;;;;;;;344.33;42.90;;;;;;;;;;5105149;28;20040;-82
2022/03/16 05:07:24;;;;;;;490.70;44.47;;;;;;;;;;5123556;28;20067;-81
2022/03/16 05:09:50;;;;;;;215.30;41.20;;;;;;;;;;5122664;28;20042;-81
2022/03/16 05:12:16;;;;;;;118.05;35.10;;;;;;;;;;5123268;28;20443;-79
2022/03/16 05:14:42;;;;;;;118.43;32.55;;;;;;;;;;5110988;28;20032;-80
2022/03/16 05:17:08;;;;;;;232.05;35.85;;;;;;;;;;5129074;28;20122;-79
2022/03/16 05:19:34;;;;;;;75.28;31.98;;;;;;;;;;5128137;28;20032;-81
2022/03/16 05:22:00;;;;;;;366.50;36.00;;;;;;;;;;5120714;28;20035;-78
2022/03/16 05:24:26;;;;;;;381.67;35.80;;;;;;;;;;5103986;28;20450;-80
2022/03/16 05:26:52;;;;;;;410.73;36.17;;;;;;;;;;5120405;28;20416;-80
2022/03/16 05:29:18;;;;;;;119.55;31.13;;;;;;;;;;5102714;28;20044;-80
2022/03/16 05:31:44;;;;;;;987.05;46.22;;;;;;;;;;5102675;28;20031;-80
2022/03/16 05:34:10;;;;;;;802.38;41.58;;;;;;;;;;5103084;28;20066;-80
2022/03/16 05:36:36;;;;;;;1129.43;46.95;;;;;;;;;;5102695;28;20044;-79
2022/03/16 05:39:03;;;;;;;560.67;36.83;;;;;;;;;;5103352;28;20041;-79
2022/03/16 05:41:29;;;;;;;197.45;33.42;;;;;;;;;;5120024;28;20039;-79
2022/03/16 05:43:55;;;;;;;96.40;29.42;;;;;;;;;;5102876;28;20035;-80
2022/03/16 05:46:21;;;;;;;664.80;40.10;;;;;;;;;;5102319;28;20352;-80
2022/03/16 05:48:48;;;;;;;907.10;46.70;;;;;;;;;;5102691;28;20104;-79
2022/03/16 05:51:14;;;;;;;76.50;35.42;;;;;;;;;;5104661;28;20097;-82
2022/03/16 05:53:40;;;;;;;373.55;36.45;;;;;;;;;;5119968;28;20042;-81
2022/03/16 05:56:06;;;;;;;114.90;33.83;;;;;;;;;;5121110;28;20035;-81
2022/03/16 05:58:32;;;;;;;396.67;38.00;;;;;;;;;;5120824;28;20055;-82
2022/03/16 06:00:58;;;;;;;571.63;42.25;;;;;;;;;;5104370;28;20161;-81
2022/03/16 06:03:24;;;;;;;502.85;40.08;;;;;;;;;;5106288;28;20056;-81
2022/03/16 06:05:50;;;;;;;273.75;40.15;;;;;;;;;;5103525;28;20032;-81
2022/03/16 06:08:16;;;;;;;310.17;36.63;;;;;;;;;;5085912;28;20070;-81
2022/03/16 06:10:42;;;;;;;119.75;32.33;;;;;;;;;;5085777;28;20066;-81
2022/03/16 06:13:08;;;;;;;100.65;34.45;;;;;;;;;;5087208;28;20040;-80
2022/03/16 06:15:40;;;;;;;77.53;34.42;;;;;;;;;;5086214;28;20039;-81
2022/03/16 06:18:07;;;;;;;111.50;35.67;;;;;;;;;;5103350;28;20044;-80
2022/03/16 06:20:33;;;;;;;92.25;36.28;;;;;;;;;;5082886;28;20039;-82
2022/03/16 06:22:59;;;;;;;72.70;36.80;;;;;;;;;;5081963;28;20036;-80
2022/03/16 06:25:25;;;;;;;75.47;36.55;;;;;;;;;;5098653;28;20051;-83
2022/03/16 06:27:51;;;;;;;68.35;35.50;;;;;;;;;;5084655;28;20040;-81
2022/03/16 06:30:17;;;;;;;70.90;36.28;;;;;;;;;;5086248;28;20046;-81
2022/03/16 06:32:45;;;;;;;74.07;38.13;;;;;;;;;;5087051;28;20036;-81
2022/03/16 06:35:11;;;;;;;73.93;36.25;;;;;;;;;;5087805;28;20032;-81
2022/03/16 06:37:37;;;;;;;74.13;37.97;;;;;;;;;;5103644;28;20036;-81
2022/03/16 06:40:03;;;;;;;86.63;39.50;;;;;;;;;;5103597;28;20046;-81
2022/03/16 06:42:29;;;;;;;76.28;37.33;;;;;;;;;;5086898;28;20349;-80
2022/03/16 06:44:55;;;;;;;73.97;37.67;;;;;;;;;;5087200;28;20036;-81
2022/03/16 06:47:21;;;;;;;81.05;39.25;;;;;;;;;;5106695;28;20065;-81
2022/03/16 06:49:47;;;;;;;73.45;37.95;;;;;;;;;;5105789;28;20371;-80
2022/03/16 06:52:13;;;;;;;70.72;37.28;;;;;;;;;;5086769;28;20105;-80
2022/03/16 06:54:39;;;;;;;75.32;36.42;;;;;;;;;;5103003;28;20040;-80
2022/03/16 06:57:05;;;;;;;75.68;38.15;;;;;;;;;;5085120;28;20032;-80
2022/03/16 06:59:31;;;;;;;76.28;38.10;;;;;;;;;;5094050;28;20030;-80
2022/03/16 07:01:57;;;;;;;72.78;36.38;;;;;;;;;;5098325;28;20070;-80
2022/03/16 07:04:23;;;;;;;70.22;36.70;;;;;;;;;;5088824;28;20055;-80
2022/03/16 07:06:50;;;;;;;72.20;36.85;;;;;;;;;;5102873;28;20095;-81
2022/03/16 07:09:16;;;;;;;66.88;35.78;;;;;;;;;;5086184;28;20040;-81
2022/03/16 07:11:42;;;;;;;73.07;36.83;;;;;;;;;;5083421;28;20037;-83
2022/03/16 07:16:52;;;;;;;67.80;36.55;;;;;;;;;;5098354;28;20067;-81
2022/03/16 07:19:18;;;;;;;70.60;35.45;;;;;;;;;;5081381;28;20340;-82
2022/03/16 07:21:44;;;;;;;66.35;34.35;;;;;;;;;;5081429;28;20043;-82
2022/03/16 07:24:10;;;;;;;66.40;35.92;;;;;;;;;;5098125;28;20060;-81
2022/03/16 07:26:36;;;;;;;64.15;34.72;;;;;;;;;;5080992;28;20044;-82
2022/03/16 07:29:02;;;;;;;66.05;35.67;;;;;;;;;;5099144;28;20043;-81
2022/03/16 07:31:30;;;;;;;64.97;35.40;;;;;;;;;;5098364;28;20040;-81
2022/03/16 07:33:56;;;;;;;67.78;34.90;;;;;;;;;;5081443;28;20046;-82
2022/03/16 07:36:22;;;;;;;71.90;36.33;;;;;;;;;;5098623;28;20078;-82
2022/03/16 07:38:48;;;;;;;66.93;35.72;;;;;;;;;;5099401;28;20048;-81
2022/03/16 07:41:15;;;;;;;66.05;35.50;;;;;;;;;;5102282;28;20051;-81
2022/03/16 07:43:41;;;;;;;64.72;35.30;;;;;;;;;;5084870;28;20040;-81
2022/03/16 07:46:07;;;;;;;64.68;36.38;;;;;;;;;;5103306;28;20036;-81
2022/03/16 07:48:34;;;;;;;68.38;36.50;;;;;;;;;;5106176;28;20044;-81
2022/03/16 07:51:01;;;;;;;69.45;36.35;;;;;;;;;;5083949;28;20036;-82
2022/03/16 07:53:27;;;;;;;71.55;36.75;;;;;;;;;;5100449;28;20060;-82
2022/03/16 07:55:57;;;;;;;61.78;34.63;;;;;;;;;;5083027;28;20051;-81
2022/03/16 07:58:26;;;;;;;65.53;36.25;;;;;;;;;;5099754;28;20039;-80
2022/03/16 08:00:52;;;;;;;63.78;35.58;;;;;;;;;;5084911;28;20044;-81
2022/03/16 08:03:18;;;;;;;67.25;35.85;;;;;;;;;;5121383;28;20072;-80
2022/03/16 08:05:47;;;;;;;62.63;34.58;;;;;;;;;;5104220;28;20050;-82
2022/03/16 08:08:13;;;;;;;60.05;34.28;;;;;;;;;;5111212;28;20028;-81
2022/03/16 08:10:39;;;;;;;56.78;31.85;;;;;;;;;;5083516;28;20040;-81
2022/03/16 08:13:05;;;;;;;54.65;30.85;;;;;;;;;;5087274;28;20036;-81
2022/03/16 08:15:31;;;;;;;52.42;28.65;;;;;;;;;;5087104;28;20052;-82
2022/03/16 08:17:57;;;;;;;49.40;29.50;;;;;;;;;;5086736;28;20036;-83
2022/03/16 08:20:23;;;;;;;47.88;29.08;;;;;;;;;;5104317;28;20485;-82
2022/03/16 08:22:56;;;;;;;46.78;27.40;;;;;;;;;;5087293;28;20455;-82
2022/03/16 08:25:22;;;;;;;52.92;28.63;;;;;;;;;;5103581;28;20048;-82
2022/03/16 08:27:48;;;;;;;46.92;28.02;;;;;;;;;;5086715;28;20040;-83
2022/03/16 08:30:15;;;;;;;46.15;27.67;;;;;;;;;;5103037;28;20317;-83
2022/03/16 08:32:41;;;;;;;44.72;27.77;;;;;;;;;;5086339;28;20040;-82
2022/03/16 08:35:08;;;;;;;48.28;28.02;;;;;;;;;;5103231;28;20371;-83
2022/03/16 08:37:34;;;;;;;46.30;27.55;;;;;;;;;;5087069;28;20050;-83
2022/03/16 08:40:00;;;;;;;47.20;26.70;;;;;;;;;;5088027;28;20447;-82
2022/03/16 08:42:26;;;;;;;40.40;25.45;;;;;;;;;;5086204;28;20033;-82
2022/03/16 08:44:53;;;;;;;44.17;25.92;;;;;;;;;;5103213;28;20108;-83
2022/03/16 08:47:20;;;;;;;44.85;25.90;;;;;;;;;;5086085;28;20132;-82
2022/03/16 08:49:46;;;;;;;38.97;26.17;;;;;;;;;;5102700;28;20067;-83
2022/03/16 08:52:12;;;;;;;39.05;24.35;;;;;;;;;;5102447;28;20036;-81
2022/03/16 08:54:40;;;;;;;43.15;25.70;;;;;;;;;;5085566;28;20039;-81
2022/03/16 08:57:06;;;;;;;38.08;23.92;;;;;;;;;;5084746;28;20115;-80
2022/03/16 08:59:32;;;;;;;39.95;23.63;;;;;;;;;;5084419;28;20044;-81
2022/03/16 09:01:58;;;;;;;36.80;23.35;;;;;;;;;;5084026;28;20050;-82
2022/03/16 09:04:24;;;;;;;40.67;23.35;;;;;;;;;;5106793;28;20040;-81
2022/03/16 09:06:50;;;;;;;36.35;22.55;;;;;;;;;;5112160;28;20055;-81
2022/03/16 09:09:16;;;;;;;33.92;20.77;;;;;;;;;;5112755;28;20036;-81
2022/03/16 09:11:42;;;;;;;34.47;21.40;;;;;;;;;;5094279;28;20144;-81
2022/03/16 09:14:08;;;;;;;33.22;20.52;;;;;;;;;;5112104;28;20391;-81
2022/03/16 09:16:34;;;;;;;28.70;17.10;;;;;;;;;;5096301;28;20040;-81
2022/03/16 09:19:00;;;;;;;27.08;16.98;;;;;;;;;;5113096;28;20107;-82
2022/03/16 09:21:26;;;;;;;26.38;17.35;;;;;;;;;;5113088;28;20044;-82
2022/03/16 09:23:53;;;;;;;24.60;15.65;;;;;;;;;;5085964;28;20039;-82
2022/03/16 09:26:22;;;;;;;25.15;14.10;;;;;;;;;;5087011;28;20074;-82
2022/03/16 09:28:48;;;;;;;19.85;13.52;;;;;;;;;;5085364;28;20047;-83
2022/03/16 09:31:15;;;;;;;20.20;13.02;;;;;;;;;;5084060;28;20036;-82
2022/03/16 09:33:41;;;;;;;20.30;11.93;;;;;;;;;;5084199;28;20439;-83
2022/03/16 09:36:09;;;;;;;18.60;11.80;;;;;;;;;;5101356;28;20040;-83
2022/03/16 09:38:36;;;;;;;19.63;12.65;;;;;;;;;;5084603;28;20047;-82
2022/03/16 09:41:02;;;;;;;17.45;11.70;;;;;;;;;;5101542;28;20040;-81
2022/03/16 09:43:30;;;;;;;20.65;12.23;;;;;;;;;;5086193;28;20052;-82
2022/03/16 09:46:05;;;;;;;17.65;11.60;;;;;;;;;;5107080;28;20046;-82
2022/03/16 09:48:31;;;;;;;18.63;11.52;;;;;;;;;;5111488;28;20093;-82
2022/03/16 09:50:58;;;;;;;16.35;10.60;;;;;;;;;;5109971;28;20036;-83
2022/03/16 09:53:26;;;;;;;17.55;12.02;;;;;;;;;;5090738;28;20040;-82
2022/03/16 09:55:52;;;;;;;18.08;11.98;;;;;;;;;;5106404;28;20055;-82
2022/03/16 09:58:20;;;;;;;18.08;11.98;;;;;;;;;;5105568;28;20044;-82
2022/03/16 10:00:46;;;;;;;18.33;12.30;;;;;;;;;;5105651;28;20118;-80
2022/03/16 10:03:13;;;;;;;19.05;12.80;;;;;;;;;;5087705;28;20059;-81
2022/03/16 10:05:40;;;;;;;19.70;12.32;;;;;;;;;;5104925;28;20108;-82
2022/03/16 10:08:08;;;;;;;26.48;13.90;;;;;;;;;;5089585;28;20444;-81
2022/03/16 10:13:21;;;;;;;21.05;13.77;;;;;;;;;;5105637;28;20032;-82
2022/03/16 10:15:47;;;;;;;22.02;14.40;;;;;;;;;;5090424;28;20470;-82
2022/03/16 10:18:14;;;;;;;21.73;14.63;;;;;;;;;;5106205;28;20044;-82
2022/03/16 10:20:41;;;;;;;22.67;15.13;;;;;;;;;;5088773;28;20040;-81
2022/03/16 10:23:07;;;;;;;21.95;14.73;;;;;;;;;;5106929;28;20050;-82
2022/03/16 10:25:52;;;;;;;23.17;15.57;;;;;;;;;;5104541;28;20054;-82
2022/03/16 10:28:18;;;;;;;22.38;15.50;;;;;;;;;;5104151;28;20043;-82
2022/03/16 10:30:57;;;;;;;24.52;16.08;;;;;;;;;;5103004;28;20040;-82
2022/03/16 10:33:24;;;;;;;21.83;14.48;;;;;;;;;;5085836;28;20061;-82
2022/03/16 10:35:56;;;;;;;22.60;14.18;;;;;;;;;;5101041;28;20101;-81
2022/03/16 10:38:22;;;;;;;25.02;15.35;;;;;;;;;;5099494;28;20044;-81
2022/03/16 10:40:49;;;;;;;22.10;14.50;;;;;;;;;;5098624;28;20071;-82
2022/03/16 10:48:59;;;;;;;19.52;13.40;;;;;;;;;;5099621;28;20032;-81
2022/03/16 10:51:25;;;;;;;20.73;13.73;;;;;;;;;;5100375;28;20040;-81
2022/03/16 10:53:52;;;;;;;20.65;14.32;;;;;;;;;;5100481;28;20462;-81
2022/03/16 10:56:18;;;;;;;20.60;13.20;;;;;;;;;;5082066;28;20427;-82
2022/03/16 10:58:45;;;;;;;19.15;13.23;;;;;;;;;;5080978;28;20046;-81
2022/03/16 11:01:12;;;;;;;20.13;13.18;;;;;;;;;;5080585;28;20089;-82
2022/03/16 11:03:38;;;;;;;17.23;12.70;;;;;;;;;;5096744;28;20060;-81
2022/03/16 11:06:04;;;;;;;20.33;12.45;;;;;;;;;;5079724;28;20044;-80
2022/03/16 11:08:33;;;;;;;21.50;13.20;;;;;;;;;;5097213;28;20032;-79
2022/03/16 11:10:59;;;;;;;21.40;13.10;;;;;;;;;;5097068;28;20036;-79
2022/03/16 11:13:28;;;;;;;21.58;13.10;;;;;;;;;;5083387;28;20051;-79
2022/03/16 11:15:55;;;;;;;19.30;12.75;;;;;;;;;;5101158;28;20101;-80
2022/03/16 11:18:23;;;;;;;18.83;12.90;;;;;;;;;;5084957;28;20040;-80
2022/03/16 11:20:49;;;;;;;19.30;13.05;;;;;;;;;;5108940;28;20048;-80
2022/03/16 11:26:14;;;;;;;18.52;13.35;;;;;;;;;;5109846;28;20032;-80
2022/03/16 11:29:00;;;;;;;16.45;11.80;;;;;;;;;;5090688;28;20054;-80
2022/03/16 11:31:27;;;;;;;17.42;12.38;;;;;;;;;;5102454;28;20047;-79
2022/03/16 11:33:53;;;;;;;19.42;13.02;;;;;;;;;;5084938;28;20364;-79
2022/03/16 11:36:30;;;;;;;15.90;11.93;;;;;;;;;;5085916;28;20043;-79
2022/03/16 11:38:57;;;;;;;18.30;11.40;;;;;;;;;;5085601;28;20050;-79
2022/03/16 11:41:26;;;;;;;18.20;13.02;;;;;;;;;;5085473;28;20036;-79
2022/03/16 11:44:03;;;;;;;17.48;12.73;;;;;;;;;;5103650;28;20055;-80
2022/03/16 11:46:30;;;;;;;19.48;12.40;;;;;;;;;;5101762;28;20044;-80
2022/03/16 11:48:56;;;;;;;18.25;12.68;;;;;;;;;;5083759;28;20463;-79
2022/03/16 11:51:23;;;;;;;19.50;12.10;;;;;;;;;;5100404;28;20028;-80
2022/03/16 11:53:51;;;;;;;16.48;11.55;;;;;;;;;;5086213;28;20047;-80
2022/03/16 11:56:21;;;;;;;18.20;12.73;;;;;;;;;;5100489;28;20115;-80
2022/03/16 11:58:54;;;;;;;18.27;12.00;;;;;;;;;;5082776;28;20040;-79
2022/03/16 12:01:25;;;;;;;18.88;12.35;;;;;;;;;;5082794;28;20051;-81
2022/03/16 12:04:13;;;;;;;17.40;12.45;;;;;;;;;;5099930;28;20447;-81
2022/03/16 12:06:52;;;;;;;16.13;11.43;;;;;;;;;;5098586;28;20119;-81
2022/03/16 12:09:22;;;;;;;15.85;11.93;;;;;;;;;;5083646;28;20217;-81
2022/03/16 12:15:11;;;;;;;18.35;11.77;;;;;;;;;;5081642;28;20443;-82
2022/03/16 12:17:37;;;;;;;16.70;11.10;;;;;;;;;;5102129;28;20044;-82
2022/03/16 12:20:09;;;;;;;17.83;12.18;;;;;;;;;;5083866;28;20091;-82
2022/03/16 12:22:50;;;;;;;16.15;12.10;;;;;;;;;;5106866;28;20028;-81
2022/03/16 12:25:29;;;;;;;17.75;12.90;;;;;;;;;;5104767;28;20044;-81
2022/03/16 12:30:49;;;;;;;17.63;12.43;;;;;;;;;;5102101;28;20070;-81
2022/03/16 12:33:22;;;;;;;17.58;11.98;;;;;;;;;;5102402;28;20036;-83
2022/03/16 12:36:13;;;;;;;17.70;13.27;;;;;;;;;;5102084;28;20036;-81
2022/03/16 12:38:47;;;;;;;18.25;12.77;;;;;;;;;;5102090;28;20094;-81
2022/03/16 12:43:58;;;;;;;17.38;11.10;;;;;;;;;;5101558;28;20036;-82
2022/03/16 12:46:32;;;;;;;15.88;11.18;;;;;;;;;;5085335;28;20436;-82
2022/03/16 12:49:00;;;;;;;15.10;10.68;;;;;;;;;;5106846;28;20036;-81
2022/03/16 12:51:44;;;;;;;13.27;9.68;;;;;;;;;;5107001;28;20406;-80
2022/03/16 12:54:10;;;;;;;12.75;9.77;;;;;;;;;;5107330;28;20040;-81
2022/03/16 12:56:39;;;;;;;13.63;10.48;;;;;;;;;;5085186;28;20102;-82
2022/03/16 12:59:05;;;;;;;17.63;9.95;;;;;;;;;;5101784;28;20096;-81
2022/03/16 13:01:31;;;;;;;15.52;10.82;;;;;;;;;;5086169;28;20058;-81
2022/03/16 13:04:00;;;;;;;15.55;9.93;;;;;;;;;;5103556;28;20048;-82
2022/03/16 13:06:26;;;;;;;14.43;10.23;;;;;;;;;;5103953;28;20036;-82
2022/03/16 13:08:52;;;;;;;13.82;9.77;;;;;;;;;;5103731;28;20043;-83
2022/03/16 13:11:24;;;;;;;15.20;9.48;;;;;;;;;;5098418;28;20444;-82
2022/03/16 13:14:19;;;;;;;12.05;9.50;;;;;;;;;;5116648;28;20036;-81
2022/03/16 13:16:46;;;;;;;13.20;9.57;;;;;;;;;;5101830;28;20114;-83
2022/03/16 13:19:24;;;;;;;16.30;10.40;;;;;;;;;;5106080;28;20047;-82
2022/03/16 13:21:50;;;;;;;11.55;9.30;;;;;;;;;;5090125;28;20059;-83
2022/03/16 13:24:16;;;;;;;13.40;9.48;;;;;;;;;;5090603;28;20051;-82
2022/03/16 13:26:42;;;;;;;14.30;9.68;;;;;;;;;;5103989;28;20035;-82
2022/03/16 13:29:09;;;;;;;12.93;9.35;;;;;;;;;;5104000;28;20039;-82
2022/03/16 13:31:36;;;;;;;15.40;9.48;;;;;;;;;;5086709;28;20043;-81
2022/03/16 13:34:02;;;;;;;13.73;9.05;;;;;;;;;;5085954;28;20038;-80
2022/03/16 13:36:35;;;;;;;12.68;8.27;;;;;;;;;;5083684;28;20051;-81
2022/03/16 13:39:04;;;;;;;11.93;8.68;;;;;;;;;;5083933;28;20465;-82
2022/03/16 13:41:30;;;;;;;13.02;8.57;;;;;;;;;;5100221;28;20075;-81
2022/03/16 13:44:15;;;;;;;14.38;9.77;;;;;;;;;;5081993;28;20040;-81
2022/03/16 13:46:44;;;;;;;13.80;9.88;;;;;;;;;;5099599;28;20036;-81
2022/03/16 13:49:15;;;;;;;16.02;10.40;;;;;;;;;;5082675;28;20063;-81
2022/03/16 13:52:00;;;;;;;14.38;10.40;;;;;;;;;;5101691;28;20099;-81
2022/03/16 13:54:26;;;;;;;15.07;10.57;;;;;;;;;;5098778;28;20071;-81
2022/03/16 13:56:53;;;;;;;15.52;10.63;;;;;;;;;;5081296;28;20051;-80
2022/03/16 13:59:19;;;;;;;15.48;10.70;;;;;;;;;;5098810;28;20044;-81
2022/03/16 14:01:46;;;;;;;15.32;11.63;;;;;;;;;;5098324;28;20048;-80
2022/03/16 14:04:12;;;;;;;14.73;10.93;;;;;;;;;;5098123;28;20112;-80
2022/03/16 14:06:38;;;;;;;14.68;10.40;;;;;;;;;;5097511;28;20044;-80
2022/03/16 14:09:10;;;;;;;15.90;11.07;;;;;;;;;;5099189;28;20032;-80
2022/03/16 14:11:37;;;;;;;16.27;11.30;;;;;;;;;;5102240;28;20047;-80
2022/03/16 14:14:10;;;;;;;14.45;11.07;;;;;;;;;;5103267;28;20068;-81
2022/03/16 14:16:38;;;;;;;13.73;10.63;;;;;;;;;;5086377;28;20036;-80
2022/03/16 14:19:23;;;;;;;14.65;9.90;;;;;;;;;;5115851;28;20036;-81
2022/03/16 14:21:49;;;;;;;15.07;10.57;;;;;;;;;;5109529;28;20031;-82
2022/03/16 14:24:15;;;;;;;19.33;10.38;;;;;;;;;;5102289;28;20087;-81
2022/03/16 14:26:41;;;;;;;16.55;10.60;;;;;;;;;;5088731;28;20068;-80
2022/03/16 14:29:07;;;;;;;14.40;10.32;;;;;;;;;;5100484;28;20083;-80
2022/03/16 14:31:33;;;;;;;15.52;10.55;;;;;;;;;;5093484;28;20039;-81
2022/03/16 14:34:00;;;;;;;13.13;9.45;;;;;;;;;;5079774;28;20150;-81
2022/03/16 14:36:31;;;;;;;14.02;9.52;;;;;;;;;;5080530;28;20039;-81
2022/03/16 14:38:57;;;;;;;14.00;10.02;;;;;;;;;;5080849;28;20044;-81